createdAt,value
2017-09-26T00:00:50.796Z,18.67
2017-09-26T00:03:17.640Z,18.53
2017-09-26T00:05:44.803Z,19.60
2017-09-26T00:08:11.962Z,17.07
2017-09-26T00:10:38.784Z,19.97
2017-09-26T00:13:05.847Z,18.70
2017-09-26T00:15:32.676Z,18.53
2017-09-26T00:17:59.491Z,18.83
2017-09-26T00:20:26.345Z,17.70
2017-09-26T00:22:53.180Z,19.07
2017-09-26T00:25:20.009Z,17.90
2017-09-26T00:27:46.864Z,19.00
2017-09-26T00:30:13.696Z,22.07
2017-09-26T00:32:40.800Z,19.80
2017-09-26T00:35:07.637Z,18.10
2017-09-26T00:37:34.690Z,17.83
2017-09-26T00:40:01.517Z,19.10
2017-09-26T00:42:28.368Z,20.00
2017-09-26T00:44:55.172Z,19.20
2017-09-26T00:47:22.001Z,23.27
2017-09-26T00:49:48.880Z,22.00
2017-09-26T00:52:15.687Z,22.07
2017-09-26T00:54:42.795Z,21.70
2017-09-26T00:57:09.619Z,23.57
2017-09-26T00:59:36.793Z,23.47
2017-09-26T01:02:03.629Z,26.07
2017-09-26T01:04:30.480Z,23.87
2017-09-26T01:06:57.320Z,24.50
2017-09-26T01:09:24.164Z,24.20
2017-09-26T01:11:51.311Z,24.03
2017-09-26T01:14:18.460Z,24.10
2017-09-26T01:16:45.288Z,21.90
2017-09-26T01:19:12.138Z,24.10
2017-09-26T01:21:38.944Z,23.83
2017-09-26T01:24:05.771Z,25.00
2017-09-26T01:26:32.628Z,25.63
2017-09-26T01:28:59.724Z,25.83
2017-09-26T01:31:26.557Z,24.27
2017-09-26T01:33:53.616Z,25.77
2017-09-26T01:36:20.442Z,23.83
2017-09-26T01:38:47.260Z,26.07
2017-09-26T01:41:19.967Z,26.13
2017-09-26T01:43:46.805Z,25.40
2017-09-26T01:46:13.612Z,25.43
2017-09-26T01:48:40.456Z,27.60
2017-09-26T01:51:07.255Z,27.00
2017-09-26T01:53:34.412Z,27.37
2017-09-26T01:56:01.268Z,28.03
2017-09-26T01:58:28.088Z,27.77
2017-09-26T02:00:54.915Z,27.37
2017-09-26T02:03:22.099Z,28.27
2017-09-26T02:05:49.236Z,28.47
2017-09-26T02:08:16.079Z,31.17
2017-09-26T02:10:43.224Z,27.50
2017-09-26T02:13:10.276Z,28.13
2017-09-26T02:15:37.067Z,28.43
2017-09-26T02:18:03.920Z,31.67
2017-09-26T02:20:30.738Z,31.07
2017-09-26T02:22:57.557Z,29.37
2017-09-26T02:25:24.696Z,29.13
2017-09-26T02:27:51.512Z,26.70
2017-09-26T02:30:18.305Z,29.43
2017-09-26T02:32:45.429Z,30.27
2017-09-26T02:35:12.224Z,31.27
2017-09-26T02:37:39.322Z,30.00
2017-09-26T02:40:06.151Z,30.10
2017-09-26T02:42:32.947Z,29.80
2017-09-26T02:44:59.792Z,31.70
2017-09-26T02:47:26.828Z,30.93
2017-09-26T02:49:53.948Z,31.50
2017-09-26T02:52:20.991Z,30.53
2017-09-26T02:54:48.148Z,31.30
2017-09-26T02:57:14.968Z,33.20
2017-09-26T02:59:42.140Z,31.63
2017-09-26T03:02:08.958Z,31.60
2017-09-26T03:04:35.776Z,32.10
2017-09-26T03:07:02.600Z,33.13
2017-09-26T03:09:29.481Z,34.73
2017-09-26T03:11:56.280Z,32.93
2017-09-26T03:14:23.115Z,33.50
2017-09-26T03:16:50.251Z,31.83
2017-09-26T03:19:17.040Z,34.53
2017-09-26T03:21:43.871Z,35.30
2017-09-26T03:24:10.904Z,32.30
2017-09-26T03:26:37.928Z,31.77
2017-09-26T03:29:04.752Z,33.33
2017-09-26T03:31:31.654Z,33.63
2017-09-26T03:33:58.697Z,34.87
2017-09-26T03:36:25.808Z,33.70
2017-09-26T03:38:52.956Z,34.87
2017-09-26T03:41:19.776Z,33.77
2017-09-26T03:43:46.805Z,35.80
2017-09-26T03:46:13.895Z,33.67
2017-09-26T03:48:40.708Z,33.97
2017-09-26T03:51:07.510Z,35.40
2017-09-26T03:53:34.632Z,32.40
2017-09-26T03:56:01.447Z,33.43
2017-09-26T03:58:28.272Z,34.77
2017-09-26T04:00:55.121Z,35.60
2017-09-26T04:03:21.969Z,35.60
2017-09-26T04:05:48.771Z,35.27
2017-09-26T04:08:15.613Z,35.57
2017-09-26T04:10:42.735Z,34.10
2017-09-26T04:13:09.564Z,34.23
2017-09-26T04:15:36.501Z,35.97
2017-09-26T04:18:03.321Z,36.60
2017-09-26T04:20:30.156Z,36.70
2017-09-26T04:22:56.980Z,36.20
2017-09-26T04:25:24.099Z,34.90
2017-09-26T04:27:50.924Z,33.60
2017-09-26T04:30:18.100Z,36.00
2017-09-26T04:32:44.916Z,35.77
2017-09-26T04:35:11.708Z,35.40
2017-09-26T04:37:38.755Z,33.80
2017-09-26T04:40:05.555Z,35.13
2017-09-26T04:42:32.622Z,34.60
2017-09-26T04:44:59.467Z,36.40
2017-09-26T04:47:26.288Z,36.57
2017-09-26T04:49:53.353Z,35.10
2017-09-26T04:52:20.507Z,35.83
2017-09-26T04:54:47.657Z,36.63
2017-09-26T04:57:14.808Z,35.90
2017-09-26T04:59:41.652Z,36.63
2017-09-26T05:02:08.448Z,37.90
2017-09-26T05:04:35.268Z,36.17
2017-09-26T05:07:02.379Z,35.40
2017-09-26T05:09:29.200Z,38.17
2017-09-26T05:11:56.272Z,37.53
2017-09-26T05:14:23.120Z,37.47
2017-09-26T05:16:49.916Z,35.67
2017-09-26T05:19:17.008Z,36.37
2017-09-26T05:21:44.156Z,37.10
2017-09-26T05:24:10.990Z,38.00
2017-09-26T05:26:37.799Z,38.47
2017-09-26T05:29:04.644Z,37.63
2017-09-26T05:31:31.461Z,37.33
2017-09-26T05:33:58.288Z,35.93
2017-09-26T05:36:25.147Z,38.53
2017-09-26T05:38:51.968Z,38.70
2017-09-26T05:41:18.788Z,38.70
2017-09-26T05:43:45.628Z,37.67
2017-09-26T05:46:12.427Z,35.10
2017-09-26T05:48:39.229Z,36.83
2017-09-26T05:51:06.056Z,37.30
2017-09-26T05:53:32.886Z,37.47
2017-09-26T05:55:59.680Z,40.00
2017-09-26T05:58:26.503Z,39.03
2017-09-26T06:00:53.340Z,40.40
2017-09-26T06:03:20.160Z,38.73
2017-09-26T06:05:47.012Z,41.20
2017-09-26T06:08:14.185Z,42.57
2017-09-26T06:10:41.016Z,44.17
2017-09-26T06:13:07.859Z,45.57
2017-09-26T06:15:34.680Z,45.20
2017-09-26T06:18:01.496Z,43.30
2017-09-26T06:20:28.321Z,44.00
2017-09-26T06:22:55.115Z,45.93
2017-09-26T06:25:21.970Z,44.03
2017-09-26T06:27:48.808Z,48.33
2017-09-26T06:30:15.628Z,49.17
2017-09-26T06:32:42.712Z,48.37
2017-09-26T06:35:09.556Z,48.83
2017-09-26T06:37:36.794Z,50.07
2017-09-26T06:40:03.960Z,46.20
2017-09-26T06:42:30.811Z,45.97
2017-09-26T06:44:57.616Z,51.80
2017-09-26T06:47:24.468Z,50.90
2017-09-26T06:49:51.320Z,50.73
2017-09-26T06:52:18.152Z,46.90
2017-09-26T06:54:44.991Z,47.83
2017-09-26T06:57:11.859Z,48.27
2017-09-26T06:59:38.684Z,46.10
2017-09-26T07:02:05.496Z,48.97
2017-09-26T07:04:32.331Z,48.10
2017-09-26T07:06:59.131Z,44.40
2017-09-26T07:09:25.952Z,46.90
2017-09-26T07:11:52.779Z,47.33
2017-09-26T07:14:19.580Z,47.37
2017-09-26T07:16:46.376Z,47.03
2017-09-26T07:19:13.447Z,43.20
2017-09-26T07:21:40.601Z,44.73
2017-09-26T07:24:07.392Z,47.03
2017-09-26T07:26:34.272Z,43.27
2017-09-26T07:29:01.068Z,44.67
2017-09-26T07:31:27.936Z,42.43
2017-09-26T07:33:54.775Z,45.23
2017-09-26T07:36:21.592Z,43.80
2017-09-26T07:38:48.455Z,43.43
2017-09-26T07:41:15.511Z,40.97
2017-09-26T07:43:42.312Z,41.57
2017-09-26T07:46:09.445Z,42.37
2017-09-26T07:48:36.587Z,45.00
2017-09-26T07:51:03.384Z,42.37
2017-09-26T07:53:30.228Z,42.67
2017-09-26T07:55:57.071Z,41.20
2017-09-26T07:58:23.956Z,40.00
2017-09-26T08:00:51.316Z,40.70
2017-09-26T08:03:19.560Z,40.10
2017-09-26T08:05:46.984Z,41.23
2017-09-26T08:08:14.231Z,40.63
2017-09-26T08:10:41.344Z,38.87
2017-09-26T08:13:08.504Z,38.67
2017-09-26T08:15:35.303Z,36.73
2017-09-26T08:18:02.156Z,41.10
2017-09-26T08:20:28.948Z,38.17
2017-09-26T08:22:55.776Z,38.10
2017-09-26T08:25:22.608Z,37.90
2017-09-26T08:27:49.407Z,36.77
2017-09-26T08:30:16.235Z,37.40
2017-09-26T08:32:43.058Z,40.27
2017-09-26T08:35:10.197Z,42.13
2017-09-26T08:37:36.988Z,40.70
2017-09-26T08:40:03.849Z,41.73
2017-09-26T08:42:30.929Z,40.37
2017-09-26T08:44:57.806Z,39.10
2017-09-26T08:47:24.920Z,36.60
2017-09-26T08:49:51.777Z,36.70
2017-09-26T08:52:18.615Z,36.47
2017-09-26T08:54:45.669Z,39.13
2017-09-26T08:57:12.804Z,36.87
2017-09-26T08:59:39.595Z,38.80
2017-09-26T09:02:06.692Z,40.30
2017-09-26T09:04:33.512Z,39.77
2017-09-26T09:07:00.338Z,40.10
2017-09-26T09:09:27.159Z,39.37
2017-09-26T09:11:53.967Z,38.90
2017-09-26T09:14:20.772Z,37.40
2017-09-26T09:16:47.856Z,36.93
2017-09-26T09:19:14.708Z,37.50
2017-09-26T09:21:41.539Z,36.70
2017-09-26T09:24:08.588Z,34.90
2017-09-26T09:26:35.391Z,34.20
2017-09-26T09:29:02.260Z,33.80
2017-09-26T09:31:29.048Z,32.73
2017-09-26T09:33:55.880Z,33.23
2017-09-26T09:36:22.713Z,35.70
2017-09-26T09:38:49.747Z,34.87
2017-09-26T09:41:16.585Z,33.87
2017-09-26T09:43:43.640Z,34.10
2017-09-26T09:46:10.468Z,33.43
2017-09-26T09:48:37.532Z,32.50
2017-09-26T09:51:04.328Z,33.30
2017-09-26T09:53:31.139Z,34.50
2017-09-26T09:55:58.268Z,33.37
2017-09-26T09:58:25.098Z,33.70
2017-09-26T10:00:51.892Z,34.30
2017-09-26T10:03:18.999Z,32.97
2017-09-26T10:05:45.812Z,34.10
2017-09-26T10:08:12.611Z,35.30
2017-09-26T10:10:40.393Z,36.00
2017-09-26T10:13:07.184Z,34.23
2017-09-26T10:15:34.235Z,36.10
2017-09-26T10:18:01.049Z,35.00
2017-09-26T10:20:27.868Z,34.77
2017-09-26T10:22:54.726Z,33.40
2017-09-26T10:25:21.524Z,33.87
2017-09-26T10:27:48.328Z,33.20
2017-09-26T10:30:15.164Z,33.93
2017-09-26T10:32:41.984Z,31.07
2017-09-26T10:35:08.841Z,31.20
2017-09-26T10:37:35.652Z,32.80
2017-09-26T10:40:02.470Z,34.30
2017-09-26T10:42:29.312Z,31.53
2017-09-26T10:44:56.355Z,33.03
2017-09-26T10:47:23.204Z,33.40
2017-09-26T10:49:50.024Z,31.73
2017-09-26T10:52:16.844Z,31.73
2017-09-26T10:54:43.939Z,32.07
2017-09-26T10:57:10.760Z,29.30
2017-09-26T10:59:37.604Z,32.03
2017-09-26T11:02:04.668Z,29.53
2017-09-26T11:04:31.720Z,30.90
2017-09-26T11:06:58.868Z,29.70
2017-09-26T11:09:26.020Z,29.93
2017-09-26T11:11:53.163Z,30.20
2017-09-26T11:14:19.989Z,29.07
2017-09-26T11:16:46.805Z,28.70
2017-09-26T11:19:13.864Z,29.80
2017-09-26T11:21:40.953Z,31.10
2017-09-26T11:24:07.780Z,27.97
2017-09-26T11:26:34.576Z,28.97
2017-09-26T11:29:01.372Z,28.80
2017-09-26T11:31:28.179Z,28.13
2017-09-26T11:33:55.004Z,27.87
2017-09-26T11:36:21.848Z,26.27
2017-09-26T11:38:48.952Z,27.77
2017-09-26T11:41:15.748Z,28.07
2017-09-26T11:43:42.603Z,27.53
2017-09-26T11:46:09.427Z,26.67
2017-09-26T11:48:36.279Z,27.70
2017-09-26T11:51:03.080Z,27.60
2017-09-26T11:53:30.216Z,25.50
2017-09-26T11:55:57.056Z,26.53
2017-09-26T11:58:23.841Z,26.23
2017-09-26T12:00:50.696Z,25.90
2017-09-26T12:03:18.252Z,25.47
2017-09-26T12:05:45.076Z,24.43
2017-09-26T12:08:11.893Z,24.27
2017-09-26T12:10:39.040Z,24.27
2017-09-26T12:13:05.849Z,23.30
2017-09-26T12:15:32.927Z,24.87
2017-09-26T12:17:59.710Z,25.40
2017-09-26T12:20:26.551Z,26.87
2017-09-26T12:22:53.330Z,27.20
2017-09-26T12:28:04.571Z,25.83
2017-09-26T12:30:31.379Z,27.47
2017-09-26T12:32:58.199Z,25.93
2017-09-26T12:35:25.101Z,24.50
2017-09-26T12:37:52.252Z,28.07
2017-09-26T12:40:19.403Z,24.33
2017-09-26T12:42:46.312Z,26.90
2017-09-26T12:45:13.151Z,24.13
2017-09-26T12:47:40.002Z,24.50
2017-09-26T12:50:07.178Z,22.93
2017-09-26T12:52:34.040Z,24.20
2017-09-26T12:55:01.748Z,24.27
2017-09-26T12:57:28.600Z,24.30
2017-09-26T12:59:55.472Z,24.17
2017-09-26T13:02:22.346Z,21.80
2017-09-26T13:04:49.181Z,23.60
2017-09-26T13:07:16.003Z,21.60
2017-09-26T13:09:42.859Z,20.43
2017-09-26T13:12:09.675Z,20.63
2017-09-26T13:14:36.500Z,23.50
2017-09-26T13:17:03.574Z,21.73
2017-09-26T13:19:30.726Z,21.47
2017-09-26T13:21:57.788Z,21.83
2017-09-26T13:24:26.924Z,21.14
2017-09-26T13:26:53.868Z,19.00
2017-09-26T13:29:20.724Z,19.33
2017-09-26T13:31:47.811Z,20.10
2017-09-26T13:34:14.689Z,20.40
2017-09-26T13:36:41.507Z,20.60
2017-09-26T13:39:08.323Z,19.80
2017-09-26T13:41:35.490Z,20.07
2017-09-26T13:44:02.306Z,19.77
2017-09-26T13:46:29.159Z,18.90
2017-09-26T13:48:55.976Z,21.17
2017-09-26T13:51:23.072Z,20.53
2017-09-26T13:53:50.196Z,20.63
2017-09-26T13:56:17.050Z,20.30
2017-09-26T13:58:43.903Z,17.80
2017-09-26T14:01:10.750Z,20.40
2017-09-26T14:03:37.575Z,19.00
2017-09-26T14:06:04.428Z,17.93
2017-09-26T14:08:31.263Z,19.10
2017-09-26T14:10:58.424Z,19.47
2017-09-26T14:13:25.265Z,19.03
2017-09-26T14:15:52.103Z,19.30
2017-09-26T14:18:18.964Z,19.90
2017-09-26T14:20:46.102Z,19.50
2017-09-26T14:23:13.255Z,19.07
2017-09-26T14:25:40.108Z,19.20
2017-09-26T14:28:07.002Z,18.93
2017-09-26T14:30:33.876Z,18.50
2017-09-26T14:33:00.691Z,17.77
2017-09-26T14:35:27.526Z,18.73
2017-09-26T14:37:54.335Z,19.30
2017-09-26T14:40:21.248Z,18.17
2017-09-26T14:42:48.308Z,17.57
2017-09-26T14:45:15.207Z,17.03
2017-09-26T14:47:42.299Z,19.60
2017-09-26T14:50:09.176Z,17.70
2017-09-26T14:52:36.302Z,18.13
2017-09-26T14:55:03.148Z,17.97
2017-09-26T14:57:30.199Z,19.90
2017-09-26T14:59:57.077Z,20.47
2017-09-26T15:02:24.170Z,20.57
2017-09-26T15:04:51.053Z,20.50
2017-09-26T15:07:17.912Z,20.40
2017-09-26T15:09:44.769Z,19.00
2017-09-26T15:12:11.628Z,19.97
2017-09-26T15:14:38.446Z,20.53
2017-09-26T15:17:05.657Z,20.63
2017-09-26T15:19:32.796Z,21.83
2017-09-26T15:21:59.625Z,19.80
2017-09-26T15:24:26.456Z,21.90
2017-09-26T15:26:53.530Z,22.30
2017-09-26T15:29:20.377Z,20.53
2017-09-26T15:31:47.191Z,21.20
2017-09-26T15:34:14.008Z,20.70
2017-09-26T15:36:40.849Z,20.73
2017-09-26T15:39:07.677Z,22.17
2017-09-26T15:41:34.540Z,22.40
2017-09-26T15:44:01.393Z,20.60
2017-09-26T15:46:28.245Z,20.03
2017-09-26T15:48:55.352Z,20.70
2017-09-26T15:51:22.218Z,22.00
2017-09-26T15:53:49.326Z,23.93
2017-09-26T15:56:16.192Z,23.83
2017-09-26T15:58:43.291Z,23.03
2017-09-26T16:01:10.141Z,23.20
2017-09-26T16:03:36.996Z,23.57
2017-09-26T16:06:03.869Z,24.57
2017-09-26T16:08:30.743Z,24.20
2017-09-26T16:10:57.594Z,24.43
2017-09-26T16:13:24.682Z,22.97
2017-09-26T16:15:51.549Z,25.00
2017-09-26T16:18:18.679Z,23.80
2017-09-26T16:20:45.504Z,25.87
2017-09-26T16:23:12.669Z,25.90
2017-09-26T16:25:39.554Z,26.70
2017-09-26T16:28:06.404Z,25.70
2017-09-26T16:30:33.503Z,28.47
2017-09-26T16:33:00.658Z,28.00
2017-09-26T16:35:27.483Z,28.40
2017-09-26T16:37:54.645Z,28.13
2017-09-26T16:40:21.497Z,29.60
2017-09-26T16:42:48.323Z,30.23
2017-09-26T16:45:16.100Z,30.20
2017-09-26T16:47:42.948Z,28.00
2017-09-26T16:50:09.804Z,28.90
2017-09-26T16:52:36.937Z,30.23
2017-09-26T16:55:03.763Z,29.80
2017-09-26T16:57:30.581Z,29.87
2017-09-26T16:59:57.668Z,30.73
2017-09-26T17:02:24.508Z,30.83
2017-09-26T17:04:51.392Z,31.90
2017-09-26T17:07:18.460Z,32.20
2017-09-26T17:09:45.530Z,32.67
2017-09-26T17:12:12.388Z,30.83
2017-09-26T17:14:39.548Z,32.47
2017-09-26T17:17:06.395Z,33.20
2017-09-26T17:19:33.650Z,33.90
2017-09-26T17:22:00.790Z,35.17
2017-09-26T17:24:27.653Z,33.07
2017-09-26T17:26:54.475Z,33.30
2017-09-26T17:29:21.580Z,31.83
2017-09-26T17:31:48.407Z,31.67
2017-09-26T17:34:15.624Z,33.13
2017-09-26T17:36:42.463Z,34.87
2017-09-26T17:39:09.319Z,33.33
2017-09-26T17:41:36.489Z,44.30
2017-09-26T17:44:03.355Z,45.80
2017-09-26T17:46:30.556Z,39.13
2017-09-26T17:48:57.409Z,37.33
2017-09-26T17:51:24.454Z,35.43
2017-09-26T17:53:51.313Z,39.07
2017-09-26T17:56:18.132Z,35.97
2017-09-26T17:58:44.971Z,34.47
2017-09-26T18:01:12.123Z,37.50
2017-09-26T18:03:39.378Z,37.30
2017-09-26T18:06:06.257Z,37.33
2017-09-26T18:08:33.371Z,38.60
2017-09-26T18:11:00.213Z,37.67
2017-09-26T18:13:27.364Z,39.00
2017-09-26T18:15:54.216Z,37.80
2017-09-26T18:18:21.027Z,39.43
2017-09-26T18:20:48.053Z,38.23
2017-09-26T18:23:14.901Z,39.77
2017-09-26T18:25:41.711Z,40.47
2017-09-26T18:28:08.832Z,38.10
2017-09-26T18:30:35.860Z,38.00
2017-09-26T18:33:02.679Z,40.10
2017-09-26T18:35:29.523Z,39.70
2017-09-26T18:37:56.402Z,39.67
2017-09-26T18:40:23.223Z,40.80
2017-09-26T18:42:50.508Z,41.10
2017-09-26T18:45:17.385Z,39.27
2017-09-26T18:47:44.506Z,40.90
2017-09-26T18:50:11.356Z,39.03
2017-09-26T18:52:38.172Z,41.73
2017-09-26T18:55:05.230Z,39.30
2017-09-26T18:57:32.151Z,41.07
2017-09-26T18:59:58.964Z,42.93
2017-09-26T19:02:25.782Z,40.77
2017-09-26T19:04:52.653Z,38.53
2017-09-26T19:07:19.466Z,39.80
2017-09-26T19:09:46.405Z,38.77
2017-09-26T19:12:13.298Z,38.27
2017-09-26T19:14:40.391Z,38.70
2017-09-26T19:17:07.541Z,39.50
2017-09-26T19:19:34.382Z,37.53
2017-09-26T19:22:01.473Z,36.47
2017-09-26T19:24:28.321Z,39.20
2017-09-26T19:26:55.189Z,38.33
2017-09-26T19:29:22.264Z,39.53
2017-09-26T19:31:49.088Z,38.30
2017-09-26T19:34:15.923Z,39.20
2017-09-26T19:36:42.970Z,38.33
2017-09-26T19:39:10.053Z,42.17
2017-09-26T19:41:36.945Z,41.23
2017-09-26T19:44:03.759Z,38.83
2017-09-26T19:46:30.605Z,41.27
2017-09-26T19:48:57.444Z,40.83
2017-09-26T19:51:24.289Z,39.60
2017-09-26T19:53:51.412Z,39.60
2017-09-26T19:56:18.288Z,40.50
2017-09-26T19:58:45.138Z,39.83
2017-09-26T20:01:11.958Z,40.43
2017-09-26T20:03:38.804Z,43.23
2017-09-26T20:06:05.667Z,40.03
2017-09-26T20:08:32.486Z,40.90
2017-09-26T20:10:59.590Z,40.37
2017-09-26T20:13:27.088Z,41.90
2017-09-26T20:15:53.930Z,42.63
2017-09-26T20:18:20.805Z,44.07
2017-09-26T20:20:47.688Z,41.80
2017-09-26T20:23:14.503Z,41.40
2017-09-26T20:25:41.351Z,40.97
2017-09-26T20:28:08.173Z,43.00
2017-09-26T20:30:35.021Z,41.87
2017-09-26T20:33:01.899Z,43.13
2017-09-26T20:35:29.084Z,44.10
2017-09-26T20:37:55.929Z,43.60
2017-09-26T20:40:22.794Z,42.77
2017-09-26T20:42:49.649Z,44.37
2017-09-26T20:45:16.477Z,43.00
2017-09-26T20:47:43.599Z,43.70
2017-09-26T20:50:10.757Z,43.70
2017-09-26T20:52:37.601Z,44.60
2017-09-26T20:55:04.459Z,42.37
2017-09-26T20:57:31.275Z,42.10
2017-09-26T20:59:58.432Z,43.20
2017-09-26T21:02:25.336Z,44.47
2017-09-26T21:04:55.232Z,44.20
2017-09-26T21:07:22.093Z,44.40
2017-09-26T21:09:48.952Z,42.70
2017-09-26T21:12:16.027Z,43.70
2017-09-26T21:14:42.879Z,44.33
2017-09-26T21:17:09.817Z,47.90
2017-09-26T21:19:36.636Z,44.70
2017-09-26T21:22:03.463Z,43.13
2017-09-26T21:24:30.336Z,45.33
2017-09-26T21:26:57.152Z,46.27
2017-09-26T21:29:23.971Z,42.83
2017-09-26T21:31:50.857Z,44.30
2017-09-26T21:34:18.027Z,43.50
2017-09-26T21:36:44.878Z,41.17
2017-09-26T21:39:12.027Z,43.60
2017-09-26T21:41:39.072Z,42.17
2017-09-26T21:44:06.223Z,43.67
2017-09-26T21:46:33.067Z,41.50
2017-09-26T21:48:59.921Z,42.73
2017-09-26T21:51:26.748Z,39.53
2017-09-26T21:53:53.630Z,42.47
2017-09-26T21:56:20.477Z,43.67
2017-09-26T21:58:47.334Z,38.50
2017-09-26T22:01:14.216Z,39.70
2017-09-26T22:03:41.100Z,40.20
2017-09-26T22:06:07.957Z,40.50
2017-09-26T22:08:34.848Z,40.10
2017-09-26T22:11:02.006Z,37.77
2017-09-26T22:13:28.857Z,38.43
2017-09-26T22:15:55.725Z,39.17
2017-09-26T22:18:22.572Z,39.97
2017-09-26T22:20:49.439Z,39.63
2017-09-26T22:23:16.333Z,38.83
2017-09-26T22:25:43.184Z,39.23
2017-09-26T22:28:10.001Z,38.53
2017-09-26T22:30:36.843Z,38.97
2017-09-26T22:33:03.696Z,40.93
2017-09-26T22:35:30.515Z,40.07
2017-09-26T22:37:57.408Z,41.73
2017-09-26T22:40:24.289Z,41.63
2017-09-26T22:42:51.103Z,39.70
2017-09-26T22:45:17.968Z,39.90
2017-09-26T22:47:44.775Z,40.00
2017-09-26T22:50:11.667Z,38.37
2017-09-26T22:52:38.555Z,41.67
2017-09-26T22:55:05.379Z,40.27
2017-09-26T22:57:32.196Z,39.67
2017-09-26T22:59:59.035Z,41.80
2017-09-26T23:02:26.116Z,40.93
2017-09-26T23:04:53.018Z,40.87
2017-09-26T23:07:20.217Z,38.67
2017-09-26T23:09:47.048Z,41.93
2017-09-26T23:12:13.887Z,40.50
2017-09-26T23:14:41.054Z,38.90
2017-09-26T23:17:07.863Z,40.33
2017-09-26T23:19:34.687Z,41.43
2017-09-26T23:22:01.560Z,42.70
2017-09-26T23:24:28.733Z,43.80
2017-09-26T23:26:55.568Z,40.23
2017-09-26T23:29:22.448Z,41.00
2017-09-26T23:31:49.568Z,40.80
2017-09-26T23:34:16.730Z,42.20
2017-09-26T23:36:43.559Z,42.40
2017-09-26T23:39:10.481Z,43.33
2017-09-26T23:41:37.301Z,40.17
2017-09-26T23:44:04.500Z,41.37
2017-09-26T23:46:31.372Z,38.87
2017-09-26T23:48:58.233Z,41.20
2017-09-26T23:51:25.068Z,41.93
2017-09-26T23:53:51.891Z,41.50
2017-09-26T23:56:18.746Z,42.77
2017-09-26T23:58:45.575Z,43.20
